Time;durP1;ratioP1;P1;durP2;ratioP2;P2;SDS_P1;SDS_P2;PMS_P1;PMS_P2;Temp;Humidity;BMP_temperature;BMP_pressure;BME280_temperature;BME280_humidity;BME280_pressure;Samples;Min_cycle;Max_cycle;Signal;HPM_P1;HPM_P2
2022/11/11 13:13:45;;;;;;;11.90;5.50;;;11.90;99.90;;;;;;6232285;22;20023;-93
2022/11/11 13:16:11;;;;;;;11.80;6.00;;;11.90;99.90;;;;;;6186381;23;20083;-92
2022/11/11 13:18:47;;;;;;;12.65;6.35;;;11.90;99.90;;;;;;6186742;23;20017;-93
2022/11/11 13:21:25;;;;;;;11.77;6.05;;;11.90;99.90;;;;;;6187661;23;20468;-92
2022/11/11 13:23:52;;;;;;;13.70;6.32;;;11.90;99.90;;;;;;6186387;23;20016;-94
2022/11/11 13:26:48;;;;;;;12.13;5.70;;;11.90;99.90;;;;;;6161159;23;20012;-95
2022/11/11 13:29:26;;;;;;;10.95;5.40;;;11.90;99.90;;;;;;6185867;23;20350;-95
2022/11/11 13:31:53;;;;;;;13.02;6.22;;;11.90;99.90;;;;;;6204186;22;20019;-94
2022/11/11 13:34:26;;;;;;;13.23;5.95;;;11.90;99.90;;;;;;6214408;22;20028;-95
2022/11/11 14:00:21;;;;;;;12.43;5.57;;;11.80;99.90;;;;;;6212621;23;20025;-92
2022/11/11 14:03:07;;;;;;;12.10;6.82;;;11.80;99.90;;;;;;6186371;23;20024;-93
2022/11/11 14:05:33;;;;;;;12.20;6.03;;;11.80;99.90;;;;;;6186238;23;20071;-92
2022/11/11 14:07:59;;;;;;;15.73;6.53;;;11.80;99.90;;;;;;6186488;23;20450;-92
2022/11/11 14:10:27;;;;;;;12.20;6.23;;;11.80;99.90;;;;;;6161640;23;20020;-91
2022/11/11 14:13:17;;;;;;;13.73;6.53;;;11.80;99.90;;;;;;6186375;23;20262;-93
2022/11/11 14:15:43;;;;;;;12.82;5.85;;;11.80;99.90;;;;;;6186064;23;20020;-92
2022/11/11 14:18:31;;;;;;;14.33;6.70;;;11.80;99.90;;;;;;6184506;23;20023;-92
2022/11/11 14:20:57;;;;;;;11.23;5.25;;;11.80;99.90;;;;;;6126935;23;20024;-92
2022/11/11 14:23:31;;;;;;;13.52;5.90;;;11.80;99.90;;;;;;6158686;23;20024;-92
2022/11/11 14:26:08;;;;;;;11.18;5.70;;;11.80;99.90;;;;;;6184145;23;20020;-93
2022/11/11 14:28:48;;;;;;;;;;;11.80;99.90;;;;;;6184539;23;20391;-94
2022/11/11 14:31:14;;;;;;;11.68;6.07;;;11.80;99.90;;;;;;6185350;23;19916;-96
2022/11/11 14:34:00;;;;;;;15.50;6.03;;;11.80;99.90;;;;;;6185516;23;20170;-93
2022/11/11 14:36:35;;;;;;;13.95;6.22;;;11.80;99.90;;;;;;6185894;23;20017;-94
2022/11/11 14:39:23;;;;;;;11.38;5.47;;;11.80;99.90;;;;;;6183576;23;20016;-95
2022/11/11 14:41:53;;;;;;;14.23;6.18;;;11.80;99.90;;;;;;6185261;23;20017;-95
2022/11/11 14:44:28;;;;;;;11.27;5.63;;;11.80;99.90;;;;;;6184447;23;20098;-95
2022/11/11 14:47:02;;;;;;;12.07;5.85;;;11.80;99.90;;;;;;6186403;23;20016;-96
2022/11/11 14:49:51;;;;;;;13.13;5.55;;;11.80;99.90;;;;;;6186483;23;20091;-95
2022/11/11 15:04:48;;;;;;;13.15;6.53;;;11.80;99.90;;;;;;6215158;23;20021;-92
2022/11/11 15:07:24;;;;;;;23.65;10.32;;;11.80;99.90;;;;;;6160580;23;20024;-91
2022/11/11 15:09:56;;;;;;;15.25;7.25;;;11.80;99.90;;;;;;6185584;23;20048;-90
2022/11/11 15:14:53;;;;;;;15.37;7.40;;;11.70;99.90;;;;;;6175864;23;20057;-93
2022/11/11 15:17:51;;;;;;;14.63;7.25;;;11.70;99.90;;;;;;6101838;23;20048;-91
2022/11/11 16:25:18;;;;;;;11.95;6.03;;;11.80;99.90;;;;;;6216377;22;20024;-93
2022/11/11 16:27:44;;;;;;;11.80;6.05;;;11.80;99.90;;;;;;6186832;23;20025;-95
2022/11/11 16:41:30;;;;;;;13.73;6.88;;;11.80;99.90;;;;;;6237412;22;20386;-91
2022/11/11 16:43:56;;;;;;;14.32;6.78;;;11.80;99.90;;;;;;6287863;22;20019;-90
2022/11/11 16:46:42;;;;;;;14.57;6.78;;;11.80;99.90;;;;;;6262579;22;20015;-91
2022/11/11 16:49:29;;;;;;;13.98;6.13;;;11.80;99.90;;;;;;6288497;22;20014;-92
2022/11/11 16:52:10;;;;;;;13.95;6.43;;;11.80;99.90;;;;;;6288082;22;20014;-93
2022/11/11 16:54:51;;;;;;;14.60;6.47;;;11.80;99.90;;;;;;6288160;22;20026;-92
2022/11/11 17:29:18;;;;;;;14.40;7.68;;;11.80;99.90;;;;;;6282244;22;20025;-94
2022/11/11 18:19:51;;;;;;;16.02;7.00;;;11.80;99.90;;;;;;6224421;22;20017;-94
2022/11/11 18:22:17;;;;;;;15.45;6.82;;;11.80;99.90;;;;;;6137899;23;20048;-93
2022/11/11 18:24:42;;;;;;;14.90;7.10;;;11.80;99.90;;;;;;6161699;23;20028;-95
2022/11/11 18:27:11;;;;;;;13.45;6.55;;;11.80;99.90;;;;;;6162032;23;20048;-95
2022/11/11 19:39:42;;;;;;;10.73;4.97;;;11.70;99.90;;;;;;6169806;23;20025;-92
2022/11/11 19:42:08;;;;;;;14.00;4.93;;;11.70;99.90;;;;;;6254294;22;20403;-94
2022/11/11 19:44:33;;;;;;;9.43;4.87;;;11.70;99.90;;;;;;6127559;23;20040;-95
2022/11/11 19:47:00;;;;;;;9.93;4.80;;;11.70;99.90;;;;;;6128237;23;20094;-92
2022/11/11 19:49:26;;;;;;;12.20;4.93;;;11.60;99.90;;;;;;6128597;23;20392;-92
2022/11/11 19:51:51;;;;;;;9.63;4.67;;;11.60;99.90;;;;;;6231136;23;20044;-92
2022/11/11 19:54:17;;;;;;;11.13;4.90;;;11.50;99.90;;;;;;6127976;23;20017;-93
2022/11/11 19:56:43;;;;;;;10.90;5.17;;;11.50;99.90;;;;;;6231631;23;20017;-93
2022/11/11 19:59:09;;;;;;;10.60;4.40;;;11.40;99.90;;;;;;6206746;23;20482;-93
2022/11/11 20:01:35;;;;;;;11.80;5.03;;;11.40;99.90;;;;;;6130088;23;20013;-92
2022/11/11 20:04:01;;;;;;;10.57;5.13;;;11.30;99.90;;;;;;6130529;23;20021;-92
2022/11/11 20:06:31;;;;;;;10.85;4.60;;;11.20;99.90;;;;;;6233609;23;20036;-93
2022/11/11 20:09:02;;;;;;;10.57;4.22;;;11.20;99.90;;;;;;6132573;23;20074;-92
2022/11/11 20:11:28;;;;;;;12.27;4.25;;;11.10;99.90;;;;;;6133195;23;20040;-94
2022/11/11 20:13:55;;;;;;;10.55;4.43;;;11.10;99.90;;;;;;6132386;23;20454;-92
2022/11/11 20:16:21;;;;;;;;;;;11.00;99.90;;;;;;6132984;23;20044;-93
2022/11/11 20:18:47;;;;;;;10.73;4.53;;;11.00;99.90;;;;;;6132694;23;19916;-92
2022/11/11 20:21:13;;;;;;;9.00;4.15;;;10.90;99.90;;;;;;6236611;23;20017;-94
2022/11/11 20:23:40;;;;;;;9.33;4.30;;;10.90;99.90;;;;;;6149802;23;20005;-92
2022/11/11 20:26:11;;;;;;;8.82;4.00;;;10.80;99.90;;;;;;6160318;23;20034;-92
2022/11/11 20:28:38;;;;;;;9.85;4.65;;;10.80;99.90;;;;;;6141279;23;20043;-94
2022/11/11 20:31:09;;;;;;;7.70;3.78;;;10.70;99.90;;;;;;6132455;23;20017;-93
2022/11/11 20:33:35;;;;;;;8.82;3.97;;;10.70;99.90;;;;;;6132317;23;20447;-93
2022/11/11 20:36:02;;;;;;;9.45;4.35;;;10.70;99.90;;;;;;6132796;23;20017;-91
2022/11/11 20:38:30;;;;;;;9.38;4.25;;;10.70;99.90;;;;;;6132280;23;20017;-92
2022/11/11 20:41:04;;;;;;;8.32;3.58;;;10.60;99.90;;;;;;6131932;23;20021;-93
2022/11/11 20:43:31;;;;;;;9.38;3.95;;;10.50;99.90;;;;;;6132128;23;20025;-93
2022/11/11 20:46:05;;;;;;;10.27;4.50;;;10.40;99.90;;;;;;6132458;23;20017;-93
2022/11/11 20:48:31;;;;;;;7.53;3.63;;;10.30;99.90;;;;;;6132188;23;20021;-93
2022/11/11 20:51:12;;;;;;;10.27;4.20;;;10.20;99.90;;;;;;6132412;23;20031;-92
2022/11/11 20:53:38;;;;;;;10.20;4.05;;;10.10;99.90;;;;;;6132619;23;20105;-92
2022/11/11 20:56:10;;;;;;;8.52;4.10;;;10.10;99.90;;;;;;6132353;23;20071;-93
2022/11/11 20:58:37;;;;;;;7.68;3.63;;;10.00;99.90;;;;;;6132495;23;20021;-92
2022/11/11 21:01:18;;;;;;;7.90;3.47;;;10.00;99.90;;;;;;6156089;23;20046;-94
2022/11/11 21:03:44;;;;;;;7.97;3.90;;;10.00;99.90;;;;;;6132674;23;20017;-92
2022/11/11 21:06:12;;;;;;;8.75;4.13;;;9.90;99.90;;;;;;6132505;23;20492;-92
2022/11/11 21:08:40;;;;;;;9.88;4.32;;;9.90;99.90;;;;;;6132096;23;20017;-92
2022/11/11 21:11:08;;;;;;;8.52;3.50;;;9.90;99.90;;;;;;6157087;22;20018;-92
2022/11/11 21:51:12;;;;;;;9.07;3.70;;;8.90;99.90;;;;;;6217335;23;20020;-94
2022/11/11 21:53:40;;;;;;;7.90;3.72;;;8.80;99.90;;;;;;6185968;23;20056;-94
